sensor_id;sensor_type;location;lat;lon;timestamp;P1;durP1;ratioP1;P2;durP2;ratioP2
66886;SDS011;53798;51.680;5.976;2022-08-25T00:00:15;4.25;;;2.15;;
66886;SDS011;53798;51.680;5.976;2022-08-25T00:02:44;4.35;;;2.28;;
66886;SDS011;53798;51.680;5.976;2022-08-25T00:05:26;6.93;;;2.38;;
66886;SDS011;53798;51.680;5.976;2022-08-25T00:07:59;3.25;;;2.10;;
66886;SDS011;53798;51.680;5.976;2022-08-25T00:10:29;3.78;;;2.30;;
66886;SDS011;53798;51.680;5.976;2022-08-25T00:12:57;4.20;;;2.22;;
66886;SDS011;53798;51.680;5.976;2022-08-25T00:15:24;6.65;;;2.58;;
66886;SDS011;53798;51.680;5.976;2022-08-25T00:17:54;4.63;;;2.72;;
66886;SDS011;53798;51.680;5.976;2022-08-25T00:20:22;3.78;;;2.40;;
66886;SDS011;53798;51.680;5.976;2022-08-25T00:22:51;3.35;;;2.40;;
66886;SDS011;53798;51.680;5.976;2022-08-25T00:25:19;3.38;;;2.80;;
66886;SDS011;53798;51.680;5.976;2022-08-25T00:27:46;4.43;;;2.97;;
66886;SDS011;53798;51.680;5.976;2022-08-25T00:30:14;5.03;;;2.65;;
66886;SDS011;53798;51.680;5.976;2022-08-25T00:32:43;4.68;;;2.75;;
66886;SDS011;53798;51.680;5.976;2022-08-25T00:35:23;9.25;;;2.83;;
66886;SDS011;53798;51.680;5.976;2022-08-25T00:37:53;4.88;;;2.95;;
66886;SDS011;53798;51.680;5.976;2022-08-25T00:40:22;3.65;;;2.60;;
66886;SDS011;53798;51.680;5.976;2022-08-25T00:42:54;3.83;;;2.50;;
66886;SDS011;53798;51.680;5.976;2022-08-25T00:45:21;3.45;;;2.42;;
66886;SDS011;53798;51.680;5.976;2022-08-25T00:47:50;5.32;;;2.70;;
66886;SDS011;53798;51.680;5.976;2022-08-25T00:50:17;4.10;;;2.90;;
66886;SDS011;53798;51.680;5.976;2022-08-25T00:52:53;9.98;;;3.38;;
66886;SDS011;53798;51.680;5.976;2022-08-25T00:55:30;5.63;;;2.40;;
66886;SDS011;53798;51.680;5.976;2022-08-25T00:58:07;4.95;;;2.88;;
66886;SDS011;53798;51.680;5.976;2022-08-25T01:00:48;4.00;;;2.65;;
66886;SDS011;53798;51.680;5.976;2022-08-25T01:03:20;6.40;;;2.50;;
66886;SDS011;53798;51.680;5.976;2022-08-25T01:05:59;7.38;;;2.80;;
66886;SDS011;53798;51.680;5.976;2022-08-25T01:08:29;4.47;;;2.42;;
66886;SDS011;53798;51.680;5.976;2022-08-25T01:11:01;5.38;;;2.60;;
66886;SDS011;53798;51.680;5.976;2022-08-25T01:13:36;5.75;;;2.53;;
66886;SDS011;53798;51.680;5.976;2022-08-25T01:16:11;6.30;;;2.60;;
66886;SDS011;53798;51.680;5.976;2022-08-25T01:18:52;3.80;;;2.50;;
66886;SDS011;53798;51.680;5.976;2022-08-25T01:21:24;4.70;;;2.53;;
66886;SDS011;53798;51.680;5.976;2022-08-25T01:23:55;5.50;;;2.50;;
66886;SDS011;53798;51.680;5.976;2022-08-25T01:26:29;5.47;;;2.83;;
66886;SDS011;53798;51.680;5.976;2022-08-25T01:29:01;6.63;;;2.80;;
66886;SDS011;53798;51.680;5.976;2022-08-25T01:31:57;3.60;;;2.40;;
66886;SDS011;53798;51.680;5.976;2022-08-25T01:34:36;6.90;;;2.80;;
66886;SDS011;53798;51.680;5.976;2022-08-25T01:37:08;7.00;;;2.88;;
66886;SDS011;53798;51.680;5.976;2022-08-25T01:39:39;6.30;;;2.47;;
66886;SDS011;53798;51.680;5.976;2022-08-25T01:45:05;4.43;;;2.53;;
66886;SDS011;53798;51.680;5.976;2022-08-25T01:47:33;5.85;;;2.95;;
66886;SDS011;53798;51.680;5.976;2022-08-25T01:50:00;7.38;;;2.95;;
66886;SDS011;53798;51.680;5.976;2022-08-25T01:52:29;4.30;;;2.60;;
66886;SDS011;53798;51.680;5.976;2022-08-25T01:55:09;4.68;;;2.70;;
66886;SDS011;53798;51.680;5.976;2022-08-25T01:57:36;8.98;;;2.70;;
66886;SDS011;53798;51.680;5.976;2022-08-25T02:00:05;10.23;;;2.90;;
66886;SDS011;53798;51.680;5.976;2022-08-25T02:02:37;3.95;;;2.90;;
66886;SDS011;53798;51.680;5.976;2022-08-25T02:05:09;4.30;;;2.65;;
66886;SDS011;53798;51.680;5.976;2022-08-25T02:07:39;6.07;;;2.95;;
66886;SDS011;53798;51.680;5.976;2022-08-25T02:10:09;6.13;;;2.78;;
66886;SDS011;53798;51.680;5.976;2022-08-25T02:12:39;8.68;;;3.05;;
66886;SDS011;53798;51.680;5.976;2022-08-25T02:15:06;5.78;;;2.80;;
66886;SDS011;53798;51.680;5.976;2022-08-25T02:17:35;5.97;;;2.83;;
66886;SDS011;53798;51.680;5.976;2022-08-25T02:20:04;8.98;;;3.40;;
66886;SDS011;53798;51.680;5.976;2022-08-25T02:22:34;9.18;;;3.20;;
66886;SDS011;53798;51.680;5.976;2022-08-25T02:25:02;5.90;;;3.13;;
66886;SDS011;53798;51.680;5.976;2022-08-25T02:27:31;8.93;;;3.20;;
66886;SDS011;53798;51.680;5.976;2022-08-25T02:29:59;7.15;;;3.10;;
66886;SDS011;53798;51.680;5.976;2022-08-25T02:32:26;6.22;;;3.17;;
66886;SDS011;53798;51.680;5.976;2022-08-25T02:34:53;5.72;;;3.20;;
66886;SDS011;53798;51.680;5.976;2022-08-25T02:37:21;5.95;;;3.85;;
66886;SDS011;53798;51.680;5.976;2022-08-25T02:39:48;7.55;;;3.10;;
66886;SDS011;53798;51.680;5.976;2022-08-25T02:42:15;6.28;;;3.25;;
66886;SDS011;53798;51.680;5.976;2022-08-25T02:44:42;7.72;;;3.47;;
66886;SDS011;53798;51.680;5.976;2022-08-25T02:47:10;5.70;;;3.50;;
66886;SDS011;53798;51.680;5.976;2022-08-25T02:49:37;6.47;;;3.10;;
66886;SDS011;53798;51.680;5.976;2022-08-25T02:52:04;6.18;;;3.42;;
66886;SDS011;53798;51.680;5.976;2022-08-25T02:54:31;7.50;;;3.28;;
66886;SDS011;53798;51.680;5.976;2022-08-25T02:56:58;7.43;;;3.45;;
66886;SDS011;53798;51.680;5.976;2022-08-25T02:59:25;9.63;;;3.38;;
66886;SDS011;53798;51.680;5.976;2022-08-25T03:01:53;7.53;;;3.60;;
66886;SDS011;53798;51.680;5.976;2022-08-25T03:04:20;5.22;;;3.35;;
66886;SDS011;53798;51.680;5.976;2022-08-25T03:06:47;11.00;;;3.83;;
66886;SDS011;53798;51.680;5.976;2022-08-25T03:09:14;7.28;;;3.80;;
66886;SDS011;53798;51.680;5.976;2022-08-25T03:11:45;10.85;;;3.97;;
66886;SDS011;53798;51.680;5.976;2022-08-25T03:14:13;5.60;;;3.50;;
66886;SDS011;53798;51.680;5.976;2022-08-25T03:16:41;5.53;;;3.05;;
66886;SDS011;53798;51.680;5.976;2022-08-25T03:19:12;7.28;;;3.45;;
66886;SDS011;53798;51.680;5.976;2022-08-25T03:21:39;7.10;;;3.65;;
66886;SDS011;53798;51.680;5.976;2022-08-25T03:24:07;7.55;;;3.63;;
66886;SDS011;53798;51.680;5.976;2022-08-25T03:26:34;4.60;;;3.13;;
66886;SDS011;53798;51.680;5.976;2022-08-25T03:29:30;7.93;;;3.40;;
66886;SDS011;53798;51.680;5.976;2022-08-25T03:32:00;6.10;;;3.08;;
66886;SDS011;53798;51.680;5.976;2022-08-25T03:34:28;4.80;;;3.30;;
66886;SDS011;53798;51.680;5.976;2022-08-25T03:36:56;7.25;;;3.63;;
66886;SDS011;53798;51.680;5.976;2022-08-25T03:39:24;5.10;;;3.15;;
66886;SDS011;53798;51.680;5.976;2022-08-25T03:41:53;4.45;;;3.38;;
66886;SDS011;53798;51.680;5.976;2022-08-25T03:44:20;8.95;;;3.13;;
66886;SDS011;53798;51.680;5.976;2022-08-25T03:46:49;6.18;;;3.20;;
66886;SDS011;53798;51.680;5.976;2022-08-25T03:49:22;8.10;;;3.30;;
66886;SDS011;53798;51.680;5.976;2022-08-25T03:51:50;6.80;;;2.78;;
66886;SDS011;53798;51.680;5.976;2022-08-25T03:54:21;8.15;;;3.63;;
66886;SDS011;53798;51.680;5.976;2022-08-25T03:56:50;6.25;;;3.38;;
66886;SDS011;53798;51.680;5.976;2022-08-25T03:59:18;5.88;;;3.10;;
66886;SDS011;53798;51.680;5.976;2022-08-25T04:01:46;5.22;;;3.30;;
66886;SDS011;53798;51.680;5.976;2022-08-25T04:04:21;7.15;;;3.08;;
66886;SDS011;53798;51.680;5.976;2022-08-25T04:06:48;5.03;;;2.80;;
66886;SDS011;53798;51.680;5.976;2022-08-25T04:09:15;6.68;;;2.90;;
66886;SDS011;53798;51.680;5.976;2022-08-25T04:11:42;7.07;;;2.75;;
66886;SDS011;53798;51.680;5.976;2022-08-25T04:14:10;7.38;;;2.78;;
66886;SDS011;53798;51.680;5.976;2022-08-25T04:16:42;4.43;;;2.75;;
66886;SDS011;53798;51.680;5.976;2022-08-25T04:19:11;3.88;;;2.58;;
66886;SDS011;53798;51.680;5.976;2022-08-25T04:21:38;5.65;;;2.92;;
66886;SDS011;53798;51.680;5.976;2022-08-25T04:24:08;6.18;;;2.75;;
66886;SDS011;53798;51.680;5.976;2022-08-25T04:26:40;4.53;;;2.95;;
66886;SDS011;53798;51.680;5.976;2022-08-25T04:29:12;6.13;;;2.78;;
66886;SDS011;53798;51.680;5.976;2022-08-25T04:31:43;5.13;;;2.72;;
66886;SDS011;53798;51.680;5.976;2022-08-25T04:34:16;5.10;;;2.60;;
66886;SDS011;53798;51.680;5.976;2022-08-25T04:36:57;6.35;;;2.72;;
66886;SDS011;53798;51.680;5.976;2022-08-25T04:39:27;8.27;;;2.65;;
66886;SDS011;53798;51.680;5.976;2022-08-25T04:41:55;3.83;;;2.47;;
66886;SDS011;53798;51.680;5.976;2022-08-25T04:44:23;4.20;;;2.60;;
66886;SDS011;53798;51.680;5.976;2022-08-25T04:46:51;4.28;;;2.40;;
66886;SDS011;53798;51.680;5.976;2022-08-25T04:49:18;6.47;;;2.40;;
66886;SDS011;53798;51.680;5.976;2022-08-25T04:51:45;6.00;;;2.70;;
66886;SDS011;53798;51.680;5.976;2022-08-25T04:54:13;5.15;;;2.40;;
66886;SDS011;53798;51.680;5.976;2022-08-25T04:56:49;4.43;;;2.53;;
66886;SDS011;53798;51.680;5.976;2022-08-25T04:59:21;3.20;;;2.60;;
66886;SDS011;53798;51.680;5.976;2022-08-25T05:01:48;7.47;;;2.40;;
66886;SDS011;53798;51.680;5.976;2022-08-25T05:04:19;3.08;;;2.42;;
66886;SDS011;53798;51.680;5.976;2022-08-25T05:06:55;4.90;;;2.60;;
66886;SDS011;53798;51.680;5.976;2022-08-25T05:09:25;4.18;;;2.45;;
66886;SDS011;53798;51.680;5.976;2022-08-25T05:11:53;4.80;;;2.30;;
66886;SDS011;53798;51.680;5.976;2022-08-25T05:14:21;5.15;;;2.50;;
66886;SDS011;53798;51.680;5.976;2022-08-25T05:16:52;6.07;;;2.58;;
66886;SDS011;53798;51.680;5.976;2022-08-25T05:19:22;4.55;;;2.53;;
66886;SDS011;53798;51.680;5.976;2022-08-25T05:21:50;3.50;;;2.45;;
66886;SDS011;53798;51.680;5.976;2022-08-25T05:24:22;7.38;;;2.50;;
66886;SDS011;53798;51.680;5.976;2022-08-25T05:26:50;3.92;;;2.67;;
66886;SDS011;53798;51.680;5.976;2022-08-25T05:29:17;4.75;;;2.50;;
66886;SDS011;53798;51.680;5.976;2022-08-25T05:31:45;6.25;;;2.45;;
66886;SDS011;53798;51.680;5.976;2022-08-25T05:34:17;3.20;;;2.00;;
66886;SDS011;53798;51.680;5.976;2022-08-25T05:36:46;4.82;;;2.40;;
66886;SDS011;53798;51.680;5.976;2022-08-25T05:39:15;6.82;;;2.40;;
66886;SDS011;53798;51.680;5.976;2022-08-25T05:41:42;5.70;;;2.58;;
66886;SDS011;53798;51.680;5.976;2022-08-25T05:44:09;5.55;;;2.53;;
66886;SDS011;53798;51.680;5.976;2022-08-25T05:46:38;13.85;;;3.35;;
66886;SDS011;53798;51.680;5.976;2022-08-25T05:49:05;6.32;;;2.50;;
66886;SDS011;53798;51.680;5.976;2022-08-25T05:51:33;5.57;;;2.63;;
66886;SDS011;53798;51.680;5.976;2022-08-25T05:54:00;8.52;;;3.30;;
66886;SDS011;53798;51.680;5.976;2022-08-25T05:56:29;7.40;;;3.28;;
66886;SDS011;53798;51.680;5.976;2022-08-25T05:58:56;11.13;;;3.13;;
66886;SDS011;53798;51.680;5.976;2022-08-25T06:01:25;7.30;;;3.05;;
66886;SDS011;53798;51.680;5.976;2022-08-25T06:04:16;7.30;;;2.60;;
66886;SDS011;53798;51.680;5.976;2022-08-25T06:06:43;10.30;;;3.33;;
66886;SDS011;53798;51.680;5.976;2022-08-25T06:09:11;10.32;;;3.47;;
66886;SDS011;53798;51.680;5.976;2022-08-25T06:11:38;7.10;;;3.20;;
66886;SDS011;53798;51.680;5.976;2022-08-25T06:14:07;5.63;;;3.17;;
66886;SDS011;53798;51.680;5.976;2022-08-25T06:16:36;8.57;;;3.17;;
66886;SDS011;53798;51.680;5.976;2022-08-25T06:19:08;10.60;;;3.20;;
66886;SDS011;53798;51.680;5.976;2022-08-25T06:21:37;12.43;;;3.40;;
66886;SDS011;53798;51.680;5.976;2022-08-25T06:24:06;7.28;;;3.13;;
66886;SDS011;53798;51.680;5.976;2022-08-25T06:26:41;10.25;;;3.45;;
66886;SDS011;53798;51.680;5.976;2022-08-25T06:29:10;6.97;;;3.28;;
66886;SDS011;53798;51.680;5.976;2022-08-25T06:31:39;5.07;;;3.10;;
66886;SDS011;53798;51.680;5.976;2022-08-25T06:34:08;12.43;;;3.42;;
66886;SDS011;53798;51.680;5.976;2022-08-25T06:36:37;7.30;;;3.38;;
66886;SDS011;53798;51.680;5.976;2022-08-25T06:39:05;7.05;;;3.38;;
66886;SDS011;53798;51.680;5.976;2022-08-25T06:41:36;11.00;;;3.28;;
66886;SDS011;53798;51.680;5.976;2022-08-25T06:44:04;11.43;;;3.25;;
66886;SDS011;53798;51.680;5.976;2022-08-25T06:46:31;11.02;;;3.55;;
66886;SDS011;53798;51.680;5.976;2022-08-25T06:49:03;7.13;;;3.30;;
66886;SDS011;53798;51.680;5.976;2022-08-25T06:51:35;13.07;;;3.60;;
66886;SDS011;53798;51.680;5.976;2022-08-25T06:54:03;7.78;;;3.20;;
66886;SDS011;53798;51.680;5.976;2022-08-25T06:56:33;7.35;;;3.63;;
66886;SDS011;53798;51.680;5.976;2022-08-25T06:59:00;6.80;;;3.25;;
66886;SDS011;53798;51.680;5.976;2022-08-25T07:01:31;9.07;;;3.33;;
66886;SDS011;53798;51.680;5.976;2022-08-25T07:04:00;9.35;;;3.47;;
66886;SDS011;53798;51.680;5.976;2022-08-25T07:06:37;10.43;;;3.55;;
66886;SDS011;53798;51.680;5.976;2022-08-25T07:09:05;8.68;;;3.30;;
66886;SDS011;53798;51.680;5.976;2022-08-25T07:11:34;10.38;;;3.92;;
66886;SDS011;53798;51.680;5.976;2022-08-25T07:14:05;7.18;;;3.10;;
66886;SDS011;53798;51.680;5.976;2022-08-25T07:16:34;7.03;;;3.22;;
66886;SDS011;53798;51.680;5.976;2022-08-25T07:19:03;6.65;;;2.50;;
66886;SDS011;53798;51.680;5.976;2022-08-25T07:21:34;11.02;;;3.72;;
66886;SDS011;53798;51.680;5.976;2022-08-25T07:24:07;8.68;;;3.17;;
66886;SDS011;53798;51.680;5.976;2022-08-25T07:26:41;6.85;;;3.42;;
66886;SDS011;53798;51.680;5.976;2022-08-25T07:29:16;9.52;;;3.10;;
66886;SDS011;53798;51.680;5.976;2022-08-25T07:31:59;8.45;;;2.97;;
66886;SDS011;53798;51.680;5.976;2022-08-25T07:34:28;7.80;;;3.22;;
66886;SDS011;53798;51.680;5.976;2022-08-25T07:37:19;6.88;;;3.22;;
66886;SDS011;53798;51.680;5.976;2022-08-25T07:40:12;4.47;;;2.70;;
66886;SDS011;53798;51.680;5.976;2022-08-25T07:43:09;7.95;;;3.20;;
66886;SDS011;53798;51.680;5.976;2022-08-25T07:45:37;7.03;;;2.80;;
66886;SDS011;53798;51.680;5.976;2022-08-25T07:48:15;5.45;;;2.97;;
66886;SDS011;53798;51.680;5.976;2022-08-25T07:50:45;11.18;;;3.33;;
66886;SDS011;53798;51.680;5.976;2022-08-25T07:53:14;6.35;;;2.80;;
66886;SDS011;53798;51.680;5.976;2022-08-25T07:55:44;12.23;;;3.38;;
66886;SDS011;53798;51.680;5.976;2022-08-25T07:58:13;9.10;;;3.22;;
66886;SDS011;53798;51.680;5.976;2022-08-25T08:00:46;13.07;;;3.15;;
66886;SDS011;53798;51.680;5.976;2022-08-25T08:03:16;10.02;;;2.90;;
66886;SDS011;53798;51.680;5.976;2022-08-25T08:06:07;9.15;;;2.97;;
66886;SDS011;53798;51.680;5.976;2022-08-25T08:08:38;14.10;;;3.20;;
66886;SDS011;53798;51.680;5.976;2022-08-25T08:11:15;25.95;;;5.57;;
66886;SDS011;53798;51.680;5.976;2022-08-25T08:13:49;10.15;;;3.38;;
66886;SDS011;53798;51.680;5.976;2022-08-25T08:16:19;19.02;;;3.70;;
66886;SDS011;53798;51.680;5.976;2022-08-25T08:18:49;6.43;;;2.80;;
66886;SDS011;53798;51.680;5.976;2022-08-25T08:21:20;6.65;;;3.00;;
66886;SDS011;53798;51.680;5.976;2022-08-25T08:23:55;6.50;;;2.88;;
66886;SDS011;53798;51.680;5.976;2022-08-25T08:26:25;6.25;;;2.90;;
66886;SDS011;53798;51.680;5.976;2022-08-25T08:29:14;15.52;;;3.38;;
66886;SDS011;53798;51.680;5.976;2022-08-25T08:31:42;6.95;;;2.88;;
66886;SDS011;53798;51.680;5.976;2022-08-25T08:34:15;8.32;;;2.88;;
66886;SDS011;53798;51.680;5.976;2022-08-25T08:36:46;7.15;;;3.08;;
66886;SDS011;53798;51.680;5.976;2022-08-25T08:39:13;7.03;;;3.20;;
66886;SDS011;53798;51.680;5.976;2022-08-25T08:41:48;9.65;;;2.92;;
66886;SDS011;53798;51.680;5.976;2022-08-25T08:44:49;7.63;;;3.33;;
66886;SDS011;53798;51.680;5.976;2022-08-25T08:54:00;7.32;;;2.60;;
66886;SDS011;53798;51.680;5.976;2022-08-25T08:56:41;8.32;;;3.25;;
66886;SDS011;53798;51.680;5.976;2022-08-25T08:59:24;5.93;;;3.20;;
66886;SDS011;53798;51.680;5.976;2022-08-25T09:02:03;7.63;;;3.60;;
66886;SDS011;53798;51.680;5.976;2022-08-25T09:04:44;7.40;;;2.42;;
66886;SDS011;53798;51.680;5.976;2022-08-25T09:07:23;5.55;;;2.63;;
66886;SDS011;53798;51.680;5.976;2022-08-25T09:10:08;10.93;;;2.92;;
66886;SDS011;53798;51.680;5.976;2022-08-25T09:12:48;5.75;;;2.33;;
66886;SDS011;53798;51.680;5.976;2022-08-25T09:22:34;6.53;;;2.40;;
66886;SDS011;53798;51.680;5.976;2022-08-25T09:33:45;6.95;;;2.40;;
66886;SDS011;53798;51.680;5.976;2022-08-25T09:36:12;7.65;;;2.55;;
66886;SDS011;53798;51.680;5.976;2022-08-25T09:38:42;8.57;;;2.65;;
66886;SDS011;53798;51.680;5.976;2022-08-25T09:41:10;6.35;;;2.80;;
66886;SDS011;53798;51.680;5.976;2022-08-25T09:43:52;10.00;;;3.03;;
66886;SDS011;53798;51.680;5.976;2022-08-25T09:46:24;3.85;;;2.00;;
66886;SDS011;53798;51.680;5.976;2022-08-25T09:48:55;6.28;;;2.88;;
66886;SDS011;53798;51.680;5.976;2022-08-25T09:51:37;7.97;;;2.55;;
66886;SDS011;53798;51.680;5.976;2022-08-25T09:56:49;5.63;;;2.63;;
66886;SDS011;53798;51.680;5.976;2022-08-25T09:59:26;6.15;;;2.20;;
66886;SDS011;53798;51.680;5.976;2022-08-25T10:02:03;6.53;;;2.17;;
66886;SDS011;53798;51.680;5.976;2022-08-25T10:04:54;4.40;;;2.33;;
66886;SDS011;53798;51.680;5.976;2022-08-25T10:07:38;7.53;;;2.72;;
66886;SDS011;53798;51.680;5.976;2022-08-25T10:10:27;7.20;;;1.98;;
66886;SDS011;53798;51.680;5.976;2022-08-25T10:13:00;5.53;;;2.25;;
66886;SDS011;53798;51.680;5.976;2022-08-25T10:15:38;4.20;;;1.90;;
66886;SDS011;53798;51.680;5.976;2022-08-25T10:18:25;6.88;;;2.05;;
66886;SDS011;53798;51.680;5.976;2022-08-25T10:23:49;8.23;;;2.45;;
66886;SDS011;53798;51.680;5.976;2022-08-25T10:35:14;7.20;;;2.42;;
66886;SDS011;53798;51.680;5.976;2022-08-25T10:38:10;6.78;;;1.88;;
66886;SDS011;53798;51.680;5.976;2022-08-25T10:47:55;3.00;;;1.80;;
66886;SDS011;53798;51.680;5.976;2022-08-25T10:50:49;3.55;;;1.70;;
66886;SDS011;53798;51.680;5.976;2022-08-25T11:02:01;10.32;;;1.90;;
66886;SDS011;53798;51.680;5.976;2022-08-25T11:07:37;4.13;;;1.95;;
66886;SDS011;53798;51.680;5.976;2022-08-25T11:16:20;4.43;;;1.30;;
66886;SDS011;53798;51.680;5.976;2022-08-25T11:19:06;3.53;;;1.27;;
66886;SDS011;53798;51.680;5.976;2022-08-25T11:21:52;3.83;;;1.40;;
66886;SDS011;53798;51.680;5.976;2022-08-25T11:27:53;2.80;;;1.38;;
66886;SDS011;53798;51.680;5.976;2022-08-25T11:30:29;2.70;;;1.25;;
66886;SDS011;53798;51.680;5.976;2022-08-25T11:32:56;2.60;;;1.08;;
66886;SDS011;53798;51.680;5.976;2022-08-25T11:35:26;4.35;;;1.13;;
66886;SDS011;53798;51.680;5.976;2022-08-25T11:38:21;8.13;;;1.20;;
66886;SDS011;53798;51.680;5.976;2022-08-25T11:47:38;2.45;;;1.38;;
66886;SDS011;53798;51.680;5.976;2022-08-25T11:50:33;2.50;;;1.42;;
66886;SDS011;53798;51.680;5.976;2022-08-25T11:53:36;4.07;;;1.52;;
66886;SDS011;53798;51.680;5.976;2022-08-25T11:56:29;5.13;;;1.40;;
66886;SDS011;53798;51.680;5.976;2022-08-25T11:59:00;2.40;;;1.50;;
66886;SDS011;53798;51.680;5.976;2022-08-25T12:04:16;4.55;;;1.55;;
66886;SDS011;53798;51.680;5.976;2022-08-25T12:07:16;3.67;;;1.50;;
66886;SDS011;53798;51.680;5.976;2022-08-25T12:15:26;6.97;;;1.67;;
66886;SDS011;53798;51.680;5.976;2022-08-25T12:23:28;2.42;;;1.48;;
66886;SDS011;53798;51.680;5.976;2022-08-25T12:29:03;5.70;;;1.35;;
66886;SDS011;53798;51.680;5.976;2022-08-25T12:37:52;1.65;;;1.25;;
66886;SDS011;53798;51.680;5.976;2022-08-25T12:45:51;4.07;;;1.80;;
66886;SDS011;53798;51.680;5.976;2022-08-25T12:54:00;5.88;;;1.52;;
66886;SDS011;53798;51.680;5.976;2022-08-25T12:56:58;2.67;;;1.38;;
66886;SDS011;53798;51.680;5.976;2022-08-25T12:59:37;8.75;;;1.80;;
66886;SDS011;53798;51.680;5.976;2022-08-25T13:02:27;1.90;;;1.25;;
66886;SDS011;53798;51.680;5.976;2022-08-25T13:11:53;4.00;;;1.58;;
66886;SDS011;53798;51.680;5.976;2022-08-25T13:14:44;5.05;;;1.55;;
66886;SDS011;53798;51.680;5.976;2022-08-25T13:17:23;6.47;;;1.45;;
66886;SDS011;53798;51.680;5.976;2022-08-25T13:20:27;3.03;;;1.42;;
66886;SDS011;53798;51.680;5.976;2022-08-25T13:22:56;4.82;;;1.40;;
66886;SDS011;53798;51.680;5.976;2022-08-25T13:25:29;3.70;;;1.40;;
66886;SDS011;53798;51.680;5.976;2022-08-25T13:28:00;2.90;;;1.48;;
66886;SDS011;53798;51.680;5.976;2022-08-25T13:30:34;3.45;;;1.67;;
66886;SDS011;53798;51.680;5.976;2022-08-25T13:33:19;4.07;;;1.27;;
66886;SDS011;53798;51.680;5.976;2022-08-25T13:35:54;11.38;;;1.83;;
66886;SDS011;53798;51.680;5.976;2022-08-25T13:38:43;4.28;;;1.50;;
66886;SDS011;53798;51.680;5.976;2022-08-25T13:41:16;16.63;;;2.05;;
66886;SDS011;53798;51.680;5.976;2022-08-25T13:43:56;5.18;;;1.60;;
66886;SDS011;53798;51.680;5.976;2022-08-25T13:46:27;3.85;;;1.33;;
66886;SDS011;53798;51.680;5.976;2022-08-25T13:49:03;7.93;;;1.73;;
66886;SDS011;53798;51.680;5.976;2022-08-25T13:51:35;3.75;;;1.30;;
66886;SDS011;53798;51.680;5.976;2022-08-25T13:54:05;2.58;;;1.40;;
66886;SDS011;53798;51.680;5.976;2022-08-25T13:56:46;2.60;;;1.40;;
66886;SDS011;53798;51.680;5.976;2022-08-25T13:59:22;2.60;;;1.40;;
66886;SDS011;53798;51.680;5.976;2022-08-25T14:01:53;4.93;;;1.35;;
66886;SDS011;53798;51.680;5.976;2022-08-25T14:09:52;3.17;;;1.40;;
66886;SDS011;53798;51.680;5.976;2022-08-25T14:12:38;3.30;;;1.35;;
66886;SDS011;53798;51.680;5.976;2022-08-25T14:17:58;11.93;;;1.77;;
66886;SDS011;53798;51.680;5.976;2022-08-25T14:20:53;2.63;;;1.20;;
66886;SDS011;53798;51.680;5.976;2022-08-25T14:23:24;3.70;;;1.55;;
66886;SDS011;53798;51.680;5.976;2022-08-25T14:25:57;3.65;;;1.50;;
66886;SDS011;53798;51.680;5.976;2022-08-25T14:28:25;2.55;;;1.38;;
66886;SDS011;53798;51.680;5.976;2022-08-25T14:30:57;3.88;;;1.50;;
66886;SDS011;53798;51.680;5.976;2022-08-25T14:33:33;9.20;;;1.80;;
66886;SDS011;53798;51.680;5.976;2022-08-25T14:36:25;4.22;;;1.50;;
66886;SDS011;53798;51.680;5.976;2022-08-25T14:38:56;3.80;;;1.48;;
66886;SDS011;53798;51.680;5.976;2022-08-25T14:41:24;2.20;;;1.30;;
66886;SDS011;53798;51.680;5.976;2022-08-25T14:43:52;3.47;;;1.33;;
66886;SDS011;53798;51.680;5.976;2022-08-25T14:46:23;2.58;;;1.67;;
66886;SDS011;53798;51.680;5.976;2022-08-25T14:48:59;2.78;;;1.55;;
66886;SDS011;53798;51.680;5.976;2022-08-25T14:51:31;4.10;;;1.63;;
66886;SDS011;53798;51.680;5.976;2022-08-25T14:54:03;4.40;;;1.50;;
66886;SDS011;53798;51.680;5.976;2022-08-25T14:56:36;1.40;;;1.20;;
66886;SDS011;53798;51.680;5.976;2022-08-25T14:59:08;5.50;;;1.52;;
66886;SDS011;53798;51.680;5.976;2022-08-25T15:01:36;5.03;;;1.60;;
66886;SDS011;53798;51.680;5.976;2022-08-25T15:04:05;4.15;;;1.40;;
66886;SDS011;53798;51.680;5.976;2022-08-25T15:06:41;2.85;;;1.48;;
66886;SDS011;53798;51.680;5.976;2022-08-25T15:09:11;4.85;;;1.70;;
66886;SDS011;53798;51.680;5.976;2022-08-25T15:11:43;5.35;;;1.80;;
66886;SDS011;53798;51.680;5.976;2022-08-25T15:14:17;5.45;;;1.52;;
66886;SDS011;53798;51.680;5.976;2022-08-25T15:16:58;4.10;;;1.50;;
66886;SDS011;53798;51.680;5.976;2022-08-25T15:19:29;4.25;;;1.60;;
66886;SDS011;53798;51.680;5.976;2022-08-25T15:21:56;3.42;;;1.70;;
66886;SDS011;53798;51.680;5.976;2022-08-25T15:24:25;3.38;;;1.60;;
66886;SDS011;53798;51.680;5.976;2022-08-25T15:26:55;4.68;;;1.52;;
66886;SDS011;53798;51.680;5.976;2022-08-25T15:31:57;5.70;;;1.65;;
66886;SDS011;53798;51.680;5.976;2022-08-25T15:34:26;3.97;;;1.75;;
66886;SDS011;53798;51.680;5.976;2022-08-25T15:36:56;3.45;;;1.52;;
66886;SDS011;53798;51.680;5.976;2022-08-25T15:39:24;4.05;;;1.52;;
66886;SDS011;53798;51.680;5.976;2022-08-25T15:41:52;7.88;;;1.52;;
66886;SDS011;53798;51.680;5.976;2022-08-25T15:44:19;2.75;;;1.50;;
66886;SDS011;53798;51.680;5.976;2022-08-25T15:46:51;5.53;;;1.55;;
66886;SDS011;53798;51.680;5.976;2022-08-25T15:49:22;3.72;;;1.55;;
66886;SDS011;53798;51.680;5.976;2022-08-25T15:51:53;2.00;;;1.33;;
66886;SDS011;53798;51.680;5.976;2022-08-25T15:54:21;3.60;;;1.60;;
66886;SDS011;53798;51.680;5.976;2022-08-25T15:56:53;3.03;;;1.38;;
66886;SDS011;53798;51.680;5.976;2022-08-25T15:59:22;3.90;;;1.77;;
66886;SDS011;53798;51.680;5.976;2022-08-25T16:01:51;4.10;;;1.60;;
66886;SDS011;53798;51.680;5.976;2022-08-25T16:04:22;3.63;;;2.13;;
66886;SDS011;53798;51.680;5.976;2022-08-25T16:06:52;2.95;;;1.65;;
66886;SDS011;53798;51.680;5.976;2022-08-25T16:09:21;5.22;;;1.55;;
66886;SDS011;53798;51.680;5.976;2022-08-25T16:11:49;6.47;;;1.50;;
66886;SDS011;53798;51.680;5.976;2022-08-25T16:14:25;6.85;;;1.50;;
66886;SDS011;53798;51.680;5.976;2022-08-25T16:16:53;2.38;;;1.42;;
66886;SDS011;53798;51.680;5.976;2022-08-25T16:19:28;4.22;;;1.63;;
66886;SDS011;53798;51.680;5.976;2022-08-25T16:21:55;2.83;;;1.70;;
66886;SDS011;53798;51.680;5.976;2022-08-25T16:24:25;6.53;;;1.60;;
66886;SDS011;53798;51.680;5.976;2022-08-25T16:26:53;4.38;;;1.42;;
66886;SDS011;53798;51.680;5.976;2022-08-25T16:29:22;3.80;;;1.30;;
66886;SDS011;53798;51.680;5.976;2022-08-25T16:31:49;2.83;;;1.42;;
66886;SDS011;53798;51.680;5.976;2022-08-25T16:34:21;2.58;;;1.42;;
66886;SDS011;53798;51.680;5.976;2022-08-25T16:36:52;3.58;;;1.42;;
66886;SDS011;53798;51.680;5.976;2022-08-25T16:39:20;3.33;;;1.60;;
66886;SDS011;53798;51.680;5.976;2022-08-25T16:41:50;7.68;;;1.45;;
66886;SDS011;53798;51.680;5.976;2022-08-25T16:44:18;3.95;;;1.60;;
66886;SDS011;53798;51.680;5.976;2022-08-25T16:46:48;2.65;;;1.50;;
66886;SDS011;53798;51.680;5.976;2022-08-25T16:49:21;3.42;;;1.40;;
66886;SDS011;53798;51.680;5.976;2022-08-25T16:51:50;2.42;;;1.52;;
66886;SDS011;53798;51.680;5.976;2022-08-25T16:54:24;3.63;;;1.27;;
66886;SDS011;53798;51.680;5.976;2022-08-25T16:57:12;4.90;;;1.30;;
66886;SDS011;53798;51.680;5.976;2022-08-25T16:59:39;3.53;;;1.30;;
66886;SDS011;53798;51.680;5.976;2022-08-25T17:02:09;2.40;;;1.42;;
66886;SDS011;53798;51.680;5.976;2022-08-25T17:04:36;3.53;;;1.20;;
66886;SDS011;53798;51.680;5.976;2022-08-25T17:07:03;3.38;;;1.38;;
66886;SDS011;53798;51.680;5.976;2022-08-25T17:09:33;3.70;;;1.48;;
66886;SDS011;53798;51.680;5.976;2022-08-25T17:12:01;2.22;;;1.23;;
66886;SDS011;53798;51.680;5.976;2022-08-25T17:14:28;12.30;;;1.60;;
66886;SDS011;53798;51.680;5.976;2022-08-25T17:16:56;2.28;;;1.20;;
66886;SDS011;53798;51.680;5.976;2022-08-25T17:19:23;3.55;;;1.50;;
66886;SDS011;53798;51.680;5.976;2022-08-25T17:21:52;3.65;;;1.38;;
66886;SDS011;53798;51.680;5.976;2022-08-25T17:24:21;3.78;;;1.40;;